Time;durP1;ratioP1;P1;durP2;ratioP2;P2;SDS_P1;SDS_P2;PMS_P1;PMS_P2;Temp;Humidity;BMP_temperature;BMP_pressure;BME280_temperature;BME280_humidity;BME280_pressure;Samples;Min_cycle;Max_cycle;Signal;HPM_P1;HPM_P2
2023/08/07 00:00:17;;;;;;;2.40;1.13;;;13.30;99.90;;;;;;5071208;28;20024;-52
2023/08/07 00:02:43;;;;;;;1.30;0.80;;;13.20;99.90;;;;;;5070991;28;20036;-47
2023/08/07 00:05:08;;;;;;;2.00;1.25;;;13.20;99.90;;;;;;5070983;28;20496;-53
2023/08/07 00:07:34;;;;;;;2.22;0.88;;;13.10;99.90;;;;;;5070927;28;20060;-54
2023/08/07 00:10:01;;;;;;;2.03;0.88;;;13.10;99.90;;;;;;5070704;28;20039;-48
2023/08/07 00:12:27;;;;;;;2.17;1.00;;;13.00;99.90;;;;;;5070433;28;20036;-46
2023/08/07 00:14:53;;;;;;;2.13;0.90;;;13.00;99.90;;;;;;5069424;28;20515;-46
2023/08/07 00:17:18;;;;;;;2.20;0.73;;;13.00;99.90;;;;;;5070605;28;20029;-48
2023/08/07 00:19:44;;;;;;;1.38;0.85;;;13.00;99.90;;;;;;5070644;28;20668;-54
2023/08/07 00:22:10;;;;;;;0.85;0.70;;;13.00;99.90;;;;;;5070753;28;20024;-51
2023/08/07 00:24:35;;;;;;;1.80;1.02;;;13.00;99.90;;;;;;5070760;28;20016;-51
2023/08/07 00:27:02;;;;;;;4.53;0.82;;;12.90;99.90;;;;;;5070823;28;20028;-46
2023/08/07 00:29:28;;;;;;;2.22;0.90;;;12.90;99.90;;;;;;5070765;28;20024;-47
2023/08/07 00:31:54;;;;;;;1.13;0.65;;;12.90;99.90;;;;;;5070345;28;20461;-49
2023/08/07 00:34:19;;;;;;;1.98;0.93;;;12.90;99.90;;;;;;5070466;28;20481;-52
2023/08/07 00:36:45;;;;;;;1.38;0.77;;;12.90;99.90;;;;;;5070673;28;20032;-53
2023/08/07 00:39:10;;;;;;;2.85;0.95;;;12.90;99.90;;;;;;5070470;28;20032;-53
2023/08/07 00:41:36;;;;;;;1.77;0.90;;;12.80;99.90;;;;;;5070492;28;20021;-48
2023/08/07 00:44:02;;;;;;;0.88;0.60;;;12.80;99.90;;;;;;5070396;28;20029;-47
2023/08/07 00:46:29;;;;;;;4.85;0.88;;;12.80;99.90;;;;;;5069615;28;20103;-50
2023/08/07 00:48:55;;;;;;;2.22;0.88;;;12.70;99.90;;;;;;5069965;28;20016;-52
2023/08/07 00:51:22;;;;;;;4.10;0.77;;;12.70;99.90;;;;;;5069730;28;20058;-49
2023/08/07 00:53:48;;;;;;;0.88;0.50;;;12.60;99.90;;;;;;5070424;28;20033;-52
2023/08/07 00:56:15;;;;;;;3.58;0.77;;;12.60;99.90;;;;;;5070411;28;20031;-53
2023/08/07 00:58:41;;;;;;;1.65;0.70;;;12.60;99.90;;;;;;5070456;28;20025;-52
2023/08/07 01:01:07;;;;;;;1.05;0.60;;;12.50;99.90;;;;;;5070190;28;20087;-50
2023/08/07 01:03:33;;;;;;;1.23;0.60;;;12.60;99.90;;;;;;5069670;28;20020;-49
2023/08/07 01:05:58;;;;;;;1.75;0.80;;;12.60;99.90;;;;;;5070264;28;20091;-59
2023/08/07 01:08:25;;;;;;;1.48;0.90;;;12.60;99.90;;;;;;5070503;28;20021;-49
2023/08/07 01:11:22;;;;;;;1.08;0.80;;;12.60;99.90;;;;;;5070571;28;20021;-53
2023/08/07 01:14:17;;;;;;;1.35;0.70;;;12.60;99.90;;;;;;5070177;28;20059;-50
2023/08/07 01:16:48;;;;;;;2.13;1.08;;;12.60;99.90;;;;;;5019350;28;20045;-52
2023/08/07 01:19:26;;;;;;;1.08;0.80;;;12.50;99.90;;;;;;5065209;28;20363;-52
2023/08/07 01:22:11;;;;;;;1.50;0.80;;;12.30;99.90;;;;;;5070083;28;20143;-51
2023/08/07 01:24:39;;;;;;;1.75;1.00;;;12.30;99.90;;;;;;5069724;28;20028;-53
2023/08/07 01:27:16;;;;;;;1.23;0.73;;;12.20;99.90;;;;;;5069687;28;20029;-47
2023/08/07 01:29:57;;;;;;;1.60;0.98;;;12.30;99.90;;;;;;5069554;28;20028;-49
2023/08/07 01:32:42;;;;;;;2.03;0.80;;;12.30;99.90;;;;;;5069304;28;20044;-50
2023/08/07 01:35:11;;;;;;;2.08;0.90;;;12.30;99.90;;;;;;5057709;28;20558;-51
2023/08/07 01:37:41;;;;;;;0.95;0.70;;;12.30;99.90;;;;;;5069879;28;20032;-47
2023/08/07 01:40:09;;;;;;;1.77;1.00;;;12.30;99.90;;;;;;5069267;28;20029;-54
2023/08/07 01:42:36;;;;;;;0.68;0.60;;;12.30;99.90;;;;;;5069318;28;20064;-46
2023/08/07 01:45:02;;;;;;;1.50;0.90;;;12.30;99.90;;;;;;5069483;28;20029;-51
2023/08/07 01:47:27;;;;;;;4.65;1.05;;;12.30;99.90;;;;;;5069351;28;20016;-50
2023/08/07 01:49:53;;;;;;;1.85;0.82;;;12.20;99.90;;;;;;5069137;28;20422;-53
2023/08/07 01:52:20;;;;;;;1.05;0.77;;;12.20;99.90;;;;;;5067402;28;20037;-47
2023/08/07 01:54:46;;;;;;;1.67;1.10;;;12.20;99.90;;;;;;5069408;28;20029;-48
2023/08/07 01:57:11;;;;;;;2.00;0.90;;;12.20;99.90;;;;;;5069508;28;20033;-47
2023/08/07 01:59:37;;;;;;;1.27;0.90;;;12.20;99.90;;;;;;5073468;28;20028;-50
2023/08/07 02:02:03;;;;;;;1.83;0.93;;;12.10;99.90;;;;;;5073051;28;20028;-49
2023/08/07 02:04:28;;;;;;;2.05;1.05;;;12.20;99.90;;;;;;5073212;28;20497;-52
2023/08/07 02:06:54;;;;;;;1.98;0.90;;;12.20;99.90;;;;;;5073019;28;20021;-51
2023/08/07 02:09:20;;;;;;;1.92;1.00;;;12.20;99.90;;;;;;5073240;28;20031;-48
2023/08/07 02:11:46;;;;;;;1.20;0.82;;;12.20;99.90;;;;;;5072963;28;20056;-46
2023/08/07 02:14:11;;;;;;;2.75;1.08;;;12.20;99.90;;;;;;5072982;28;20461;-54
2023/08/07 02:16:37;;;;;;;1.90;0.98;;;12.10;99.90;;;;;;5071759;28;20380;-56
2023/08/07 02:19:03;;;;;;;1.10;0.73;;;12.10;99.90;;;;;;5073145;28;20498;-51
2023/08/07 02:21:28;;;;;;;1.50;0.90;;;12.10;99.90;;;;;;5073099;28;20021;-48
2023/08/07 02:23:54;;;;;;;1.63;1.00;;;12.10;99.90;;;;;;5073031;28;20358;-46
2023/08/07 02:26:19;;;;;;;1.70;0.82;;;12.10;99.90;;;;;;5072896;28;20020;-49
2023/08/07 02:28:45;;;;;;;1.13;0.80;;;12.10;99.90;;;;;;5073095;28;20093;-48
2023/08/07 02:31:10;;;;;;;1.80;0.80;;;12.10;99.90;;;;;;5072835;28;20039;-50
2023/08/07 02:33:36;;;;;;;1.38;1.00;;;12.10;99.90;;;;;;5072858;28;20124;-51
2023/08/07 02:36:02;;;;;;;2.38;1.10;;;12.10;99.90;;;;;;5071383;28;20075;-46
2023/08/07 02:38:27;;;;;;;2.88;1.05;;;12.10;99.90;;;;;;5072744;28;20155;-52
2023/08/07 02:40:53;;;;;;;3.38;1.00;;;12.10;99.90;;;;;;5072304;28;20013;-47
2023/08/07 02:43:18;;;;;;;1.95;1.10;;;12.10;99.90;;;;;;5072653;28;20025;-48
2023/08/07 02:45:44;;;;;;;1.13;0.70;;;12.10;99.90;;;;;;5072407;28;20024;-50
2023/08/07 02:48:10;;;;;;;1.65;0.80;;;12.10;99.90;;;;;;5072418;28;20075;-49
2023/08/07 02:50:35;;;;;;;0.88;0.70;;;12.00;99.90;;;;;;5072349;28;20021;-49
2023/08/07 02:53:02;;;;;;;1.23;0.73;;;11.90;99.90;;;;;;5072218;28;20099;-52
2023/08/07 02:55:27;;;;;;;1.00;0.80;;;11.90;99.90;;;;;;5071944;28;20062;-49
2023/08/07 02:57:53;;;;;;;1.33;0.82;;;11.90;99.90;;;;;;5072038;28;20052;-51
2023/08/07 03:00:19;;;;;;;0.98;0.70;;;11.90;99.90;;;;;;5072470;28;20084;-51
2023/08/07 03:02:44;;;;;;;3.47;0.90;;;11.80;99.90;;;;;;5072011;28;20376;-50
2023/08/07 03:05:10;;;;;;;2.53;1.08;;;11.80;99.90;;;;;;5072087;28;20052;-51
2023/08/07 03:07:36;;;;;;;2.40;1.05;;;11.80;99.90;;;;;;5072172;28;20094;-48
2023/08/07 03:10:02;;;;;;;2.45;0.98;;;11.80;99.90;;;;;;5071065;28;20029;-50
2023/08/07 03:12:27;;;;;;;2.05;1.00;;;11.70;99.90;;;;;;5070611;28;20025;-50
2023/08/07 03:14:53;;;;;;;1.98;0.98;;;11.70;99.90;;;;;;5071884;28;20021;-50
2023/08/07 03:17:20;;;;;;;1.95;0.95;;;11.70;99.90;;;;;;5071989;28;20025;-53
2023/08/07 03:19:46;;;;;;;1.42;0.98;;;11.70;99.90;;;;;;5072027;28;20027;-50
2023/08/07 03:22:12;;;;;;;1.40;0.82;;;11.70;99.90;;;;;;5071860;28;20033;-52
2023/08/07 03:24:37;;;;;;;2.25;0.82;;;11.70;99.90;;;;;;5071745;28;20107;-53
2023/08/07 03:27:03;;;;;;;1.88;1.00;;;11.70;99.90;;;;;;5071923;28;20020;-52
2023/08/07 03:29:29;;;;;;;2.85;1.23;;;11.70;99.90;;;;;;5071722;28;20029;-50
2023/08/07 03:31:55;;;;;;;2.45;0.93;;;11.70;99.90;;;;;;5071549;28;20021;-49
2023/08/07 03:34:20;;;;;;;1.42;0.77;;;11.60;99.90;;;;;;5071560;28;20405;-47
2023/08/07 03:36:46;;;;;;;3.35;1.13;;;11.50;99.90;;;;;;5071423;28;20108;-50
2023/08/07 03:39:12;;;;;;;1.85;1.00;;;11.50;99.90;;;;;;5071184;28;20024;-52
2023/08/07 03:41:38;;;;;;;2.38;1.30;;;11.50;99.90;;;;;;5071538;28;20330;-48
2023/08/07 03:44:04;;;;;;;4.43;1.00;;;11.50;99.90;;;;;;5071316;28;20477;-48
2023/08/07 03:46:29;;;;;;;2.08;0.90;;;11.50;99.90;;;;;;5071282;28;20033;-54
2023/08/07 03:48:55;;;;;;;2.03;1.02;;;11.50;99.90;;;;;;5071279;28;20035;-48
2023/08/07 03:51:20;;;;;;;2.45;1.17;;;11.60;99.90;;;;;;5071585;28;20085;-48
2023/08/07 03:53:46;;;;;;;1.85;0.90;;;11.60;99.90;;;;;;5071107;28;20091;-49
2023/08/07 03:56:12;;;;;;;3.05;1.02;;;11.60;99.90;;;;;;5070832;28;20028;-49
2023/08/07 03:58:38;;;;;;;2.47;0.98;;;11.60;99.90;;;;;;5071330;28;20534;-47
2023/08/07 04:01:03;;;;;;;5.85;1.13;;;11.60;99.90;;;;;;5071211;28;20017;-48
2023/08/07 04:03:29;;;;;;;3.47;1.20;;;11.60;99.90;;;;;;5071082;28;20037;-45
2023/08/07 04:05:55;;;;;;;0.85;0.70;;;11.70;99.90;;;;;;5070895;28;20112;-48
2023/08/07 04:08:21;;;;;;;1.67;0.90;;;11.60;99.90;;;;;;5071011;28;20024;-46
2023/08/07 04:11:00;;;;;;;7.93;1.30;;;11.70;99.90;;;;;;5069674;28;20081;-47
2023/08/07 04:13:26;;;;;;;2.08;1.10;;;11.60;99.90;;;;;;5070632;28;20105;-49
2023/08/07 04:15:52;;;;;;;2.72;1.35;;;11.60;99.90;;;;;;5059548;28;20070;-46
2023/08/07 04:18:18;;;;;;;2.47;1.17;;;11.60;99.90;;;;;;5070829;28;20394;-47
2023/08/07 04:20:52;;;;;;;1.73;0.93;;;11.50;99.90;;;;;;5070820;28;20020;-48
2023/08/07 04:23:18;;;;;;;1.23;0.80;;;11.50;99.90;;;;;;5070735;28;20020;-48
2023/08/07 04:25:44;;;;;;;5.10;1.20;;;11.50;99.90;;;;;;5070383;28;20016;-49
2023/08/07 04:28:10;;;;;;;2.58;1.27;;;11.40;99.90;;;;;;5070448;28;20056;-52
2023/08/07 04:30:35;;;;;;;5.40;1.10;;;11.40;99.90;;;;;;5070284;28;20089;-47
2023/08/07 04:33:02;;;;;;;1.45;1.08;;;11.40;99.90;;;;;;5069025;28;20040;-47
2023/08/07 04:35:28;;;;;;;3.35;1.10;;;11.40;99.90;;;;;;5070034;28;20493;-51
2023/08/07 04:37:53;;;;;;;1.73;0.98;;;11.40;99.90;;;;;;5070504;28;20099;-53
2023/08/07 04:40:19;;;;;;;2.72;1.20;;;11.40;99.90;;;;;;5070492;28;20067;-48
2023/08/07 04:42:44;;;;;;;3.45;1.30;;;11.40;99.90;;;;;;5070112;28;20033;-51
2023/08/07 04:45:10;;;;;;;0.90;0.70;;;11.30;99.90;;;;;;5070130;28;20029;-55
2023/08/07 04:47:36;;;;;;;4.15;1.00;;;11.40;99.90;;;;;;5070172;28;20109;-46
2023/08/07 04:50:01;;;;;;;1.95;1.20;;;11.30;99.90;;;;;;5069348;28;20070;-49
2023/08/07 04:52:28;;;;;;;1.65;1.10;;;11.30;99.90;;;;;;5069497;28;20029;-53
2023/08/07 04:54:53;;;;;;;2.78;1.00;;;11.30;99.90;;;;;;5069844;28;20025;-51
2023/08/07 04:57:19;;;;;;;2.78;1.00;;;11.30;99.90;;;;;;5070128;28;20069;-50
2023/08/07 04:59:44;;;;;;;1.88;0.95;;;11.30;99.90;;;;;;5069867;28;20025;-54
2023/08/07 05:02:10;;;;;;;2.10;1.17;;;11.30;99.90;;;;;;5070153;28;20033;-52
2023/08/07 05:04:36;;;;;;;2.10;1.35;;;11.30;99.90;;;;;;5069832;28;20063;-52
2023/08/07 05:07:01;;;;;;;2.03;1.02;;;11.30;99.90;;;;;;5070170;28;20021;-49
2023/08/07 05:09:27;;;;;;;2.05;1.15;;;11.40;99.90;;;;;;5069927;28;20029;-54
2023/08/07 05:11:52;;;;;;;1.65;1.02;;;11.30;99.90;;;;;;5069779;28;20096;-54
2023/08/07 05:14:18;;;;;;;2.33;0.90;;;11.30;99.90;;;;;;5069865;28;20052;-55
2023/08/07 05:16:44;;;;;;;1.42;1.02;;;11.30;99.90;;;;;;5069773;28;20111;-50
2023/08/07 05:19:09;;;;;;;3.22;1.30;;;11.40;99.90;;;;;;5069804;28;20060;-48
2023/08/07 05:21:35;;;;;;;2.28;1.17;;;11.40;99.90;;;;;;5069829;28;20384;-50
2023/08/07 05:24:00;;;;;;;2.22;1.02;;;11.30;99.90;;;;;;5069468;28;20086;-50
2023/08/07 05:26:26;;;;;;;2.08;1.15;;;11.40;99.90;;;;;;5069604;28;20044;-55
2023/08/07 05:28:52;;;;;;;3.72;1.23;;;11.50;99.90;;;;;;5069715;28;20032;-49
2023/08/07 05:31:17;;;;;;;2.42;1.30;;;11.50;99.90;;;;;;5069608;28;20469;-52
2023/08/07 05:33:43;;;;;;;2.33;1.00;;;11.50;99.90;;;;;;5068819;28;20114;-50
2023/08/07 05:36:08;;;;;;;2.63;1.17;;;11.50;99.90;;;;;;5069567;28;20440;-53
2023/08/07 05:38:34;;;;;;;2.13;1.30;;;11.60;99.90;;;;;;5069692;28;20024;-47
2023/08/07 05:41:00;;;;;;;3.78;1.17;;;11.60;99.90;;;;;;5069448;28;20016;-55
2023/08/07 05:43:25;;;;;;;2.92;1.45;;;11.60;99.90;;;;;;5069653;28;20037;-53
2023/08/07 05:45:51;;;;;;;4.00;1.50;;;11.60;99.90;;;;;;5069247;28;20047;-53
2023/08/07 05:48:17;;;;;;;4.28;1.63;;;11.70;99.90;;;;;;5069332;28;20056;-52
2023/08/07 05:50:42;;;;;;;1.95;1.25;;;11.80;99.90;;;;;;5069479;28;20036;-51
2023/08/07 05:53:08;;;;;;;2.78;1.10;;;11.80;99.90;;;;;;5069487;28;20105;-49
2023/08/07 05:55:34;;;;;;;1.98;1.10;;;11.90;99.90;;;;;;5069622;28;20123;-51
2023/08/07 05:58:00;;;;;;;2.60;1.20;;;12.00;99.90;;;;;;5069423;28;20025;-50
2023/08/07 06:00:25;;;;;;;3.63;1.27;;;12.10;99.90;;;;;;5069585;28;20032;-53
2023/08/07 06:02:51;;;;;;;3.85;1.20;;;12.40;99.90;;;;;;5069421;28;20024;-53
2023/08/07 06:05:17;;;;;;;3.45;1.35;;;12.90;99.90;;;;;;5069379;28;20093;-56
2023/08/07 06:07:42;;;;;;;1.80;1.17;;;13.40;99.90;;;;;;5069453;28;20060;-51
2023/08/07 06:10:08;;;;;;;1.55;0.90;;;13.80;99.90;;;;;;5069384;28;20025;-49
2023/08/07 06:12:34;;;;;;;3.90;1.33;;;14.30;99.90;;;;;;5069268;28;20078;-49
2023/08/07 06:15:00;;;;;;;2.97;1.30;;;14.90;99.90;;;;;;5069341;28;20099;-53
2023/08/07 06:17:25;;;;;;;2.15;1.02;;;15.20;99.90;;;;;;5069333;28;20037;-48
2023/08/07 06:19:52;;;;;;;1.33;0.88;;;15.40;99.90;;;;;;5069335;28;20063;-53
2023/08/07 06:22:18;;;;;;;1.90;1.00;;;15.60;99.90;;;;;;5069344;28;20056;-48
2023/08/07 06:24:43;;;;;;;2.58;1.20;;;16.00;99.90;;;;;;5069221;28;20429;-55
2023/08/07 06:27:09;;;;;;;4.75;0.95;;;16.40;99.90;;;;;;5069264;28;20063;-50
2023/08/07 06:29:34;;;;;;;3.40;1.05;;;16.90;99.90;;;;;;5069334;28;20028;-53
2023/08/07 06:32:00;;;;;;;2.05;1.08;;;17.50;99.90;;;;;;5069309;28;20104;-55
2023/08/07 06:34:26;;;;;;;1.38;0.80;;;17.90;99.90;;;;;;5068713;28;20057;-49
2023/08/07 06:36:51;;;;;;;1.85;0.80;;;18.40;99.90;;;;;;5069181;28;20016;-52
2023/08/07 06:39:17;;;;;;;2.15;0.90;;;18.70;99.90;;;;;;5067855;28;20029;-54
2023/08/07 06:41:42;;;;;;;2.13;1.13;;;19.00;99.90;;;;;;5069368;28;20017;-50
2023/08/07 06:44:08;;;;;;;1.30;0.70;;;19.30;99.90;;;;;;5069726;28;20039;-52
2023/08/07 06:46:34;;;;;;;3.88;0.77;;;19.40;99.90;;;;;;5072864;28;20112;-54
2023/08/07 06:48:59;;;;;;;1.35;0.80;;;19.70;99.90;;;;;;5072511;28;20031;-47
2023/08/07 06:51:25;;;;;;;3.22;1.00;;;19.80;99.90;;;;;;5072411;28;20050;-46
2023/08/07 06:53:50;;;;;;;1.38;1.08;;;19.60;99.90;;;;;;5072443;28;20082;-47
2023/08/07 06:56:16;;;;;;;2.83;1.15;;;19.70;99.90;;;;;;5072399;28;20136;-52
2023/08/07 06:58:42;;;;;;;3.78;0.88;;;20.10;99.90;;;;;;5072767;28;20074;-54
2023/08/07 07:01:07;;;;;;;1.90;0.80;;;20.50;99.90;;;;;;5072403;28;20529;-53
2023/08/07 07:03:33;;;;;;;1.08;0.73;;;20.70;99.90;;;;;;5072332;28;20032;-55
2023/08/07 07:05:59;;;;;;;1.77;0.80;;;21.10;99.90;;;;;;5072465;28;20078;-52
2023/08/07 07:08:24;;;;;;;2.13;0.70;;;21.60;99.90;;;;;;5072399;28;20106;-49
2023/08/07 07:10:50;;;;;;;3.40;0.80;;;22.00;99.90;;;;;;5072229;28;20098;-49
2023/08/07 07:13:15;;;;;;;2.88;0.98;;;22.30;99.90;;;;;;5071810;28;20071;-59
2023/08/07 07:15:41;;;;;;;1.58;0.75;;;22.60;99.90;;;;;;5072262;28;20039;-49
2023/08/07 07:18:07;;;;;;;4.07;0.93;;;22.90;99.90;;;;;;5072139;28;20043;-49
2023/08/07 07:20:32;;;;;;;2.60;0.88;;;23.10;99.90;;;;;;5071839;28;20016;-49
2023/08/07 07:22:58;;;;;;;1.35;0.70;;;23.30;99.90;;;;;;5071990;28;20075;-53
2023/08/07 07:25:24;;;;;;;1.42;0.63;;;23.00;99.90;;;;;;5072044;28;20021;-49
2023/08/07 07:27:49;;;;;;;1.38;0.68;;;23.30;99.90;;;;;;5071882;28;20032;-50
2023/08/07 07:30:15;;;;;;;2.42;0.93;;;23.70;99.90;;;;;;5071746;28;20016;-52
2023/08/07 07:32:40;;;;;;;3.22;1.30;;;24.10;99.90;;;;;;5071539;28;20032;-51
2023/08/07 07:35:07;;;;;;;1.67;0.90;;;24.30;99.90;;;;;;5071340;28;20053;-53
2023/08/07 07:37:32;;;;;;;1.02;0.70;;;24.30;99.90;;;;;;5071804;28;20036;-51
2023/08/07 07:39:58;;;;;;;2.10;0.70;;;24.40;99.90;;;;;;5070339;28;20029;-51
2023/08/07 07:42:23;;;;;;;1.58;0.70;;;24.30;99.90;;;;;;5071552;28;20043;-46
2023/08/07 07:44:49;;;;;;;2.28;0.82;;;24.30;99.90;;;;;;5071572;28;20466;-48
2023/08/07 07:47:15;;;;;;;1.20;0.70;;;24.80;99.90;;;;;;5071352;28;20043;-54
2023/08/07 07:49:47;;;;;;;1.23;0.60;;;24.70;99.90;;;;;;5071472;28;20533;-50
2023/08/07 07:52:13;;;;;;;1.40;0.75;;;24.60;99.90;;;;;;5081941;28;20028;-52
2023/08/07 07:54:39;;;;;;;2.08;0.80;;;24.30;99.90;;;;;;5070959;28;20389;-53
2023/08/07 07:57:05;;;;;;;0.98;0.63;;;24.40;99.90;;;;;;5070710;28;20021;-55
2023/08/07 07:59:30;;;;;;;1.35;0.80;;;24.80;99.90;;;;;;5069790;28;20030;-52
2023/08/07 08:01:56;;;;;;;1.08;0.70;;;24.80;99.90;;;;;;5071292;28;20086;-54
2023/08/07 08:04:22;;;;;;;1.35;0.70;;;24.50;99.90;;;;;;5071101;28;20028;-50
2023/08/07 08:06:48;;;;;;;1.10;0.75;;;24.20;99.90;;;;;;5071371;28;20388;-54
2023/08/07 08:09:14;;;;;;;2.42;0.95;;;24.30;99.90;;;;;;5071360;28;20025;-48
2023/08/07 08:11:39;;;;;;;1.38;0.80;;;24.20;99.90;;;;;;5071182;28;20062;-54
2023/08/07 08:14:05;;;;;;;2.08;0.77;;;24.40;99.90;;;;;;5070966;28;20119;-49
2023/08/07 08:16:31;;;;;;;1.77;0.80;;;24.60;99.90;;;;;;5070924;28;20151;-52
2023/08/07 08:18:56;;;;;;;1.15;0.60;;;24.90;99.90;;;;;;5070914;28;20478;-47
2023/08/07 08:21:22;;;;;;;1.20;0.80;;;24.70;99.90;;;;;;5070958;28;20028;-50
2023/08/07 08:23:47;;;;;;;2.38;1.10;;;24.50;99.90;;;;;;5070628;28;20535;-52
2023/08/07 08:26:13;;;;;;;1.48;0.60;;;24.60;99.90;;;;;;5070934;28;20028;-52
2023/08/07 08:28:38;;;;;;;2.30;0.90;;;24.60;99.90;;;;;;5070647;28;20469;-48
2023/08/07 08:31:05;;;;;;;2.38;0.90;;;24.80;99.90;;;;;;5070577;28;20029;-50
2023/08/07 08:33:30;;;;;;;1.33;0.82;;;24.30;99.90;;;;;;5069838;28;20036;-48
2023/08/07 08:35:56;;;;;;;1.15;0.70;;;24.00;99.90;;;;;;5070277;28;20082;-48
2023/08/07 08:38:22;;;;;;;0.80;0.60;;;24.30;99.90;;;;;;5070440;28;20031;-46
2023/08/07 08:40:51;;;;;;;1.42;0.80;;;24.20;99.90;;;;;;5070333;28;20074;-51
2023/08/07 08:43:17;;;;;;;1.98;0.77;;;24.50;99.90;;;;;;5068776;28;20032;-48
2023/08/07 08:45:44;;;;;;;1.38;0.93;;;24.50;99.90;;;;;;5070318;28;20082;-51
2023/08/07 08:48:17;;;;;;;3.70;0.90;;;24.50;99.90;;;;;;5070502;28;20032;-49
2023/08/07 08:50:43;;;;;;;1.42;1.00;;;24.50;99.90;;;;;;5070399;28;20020;-51
2023/08/07 08:53:09;;;;;;;1.30;0.70;;;24.80;99.90;;;;;;5066372;28;20040;-45
2023/08/07 08:55:36;;;;;;;1.23;0.93;;;25.30;99.90;;;;;;5064407;28;20415;-52
2023/08/07 08:58:01;;;;;;;1.48;1.02;;;25.00;99.90;;;;;;5070152;28;20052;-53
2023/08/07 09:00:29;;;;;;;4.25;0.90;;;25.10;99.90;;;;;;5070243;28;20056;-55
2023/08/07 09:02:55;;;;;;;1.38;0.80;;;25.10;99.90;;;;;;5070056;28;20481;-49
2023/08/07 09:05:21;;;;;;;1.65;0.90;;;24.90;99.90;;;;;;5070348;28;20112;-54
2023/08/07 09:07:48;;;;;;;3.50;1.00;;;25.30;99.90;;;;;;5069448;28;20032;-50
2023/08/07 09:10:15;;;;;;;1.85;0.90;;;25.80;99.90;;;;;;5070114;28;20048;-50
2023/08/07 09:12:48;;;;;;;1.73;0.73;;;25.60;99.50;;;;;;5069978;28;20059;-49
2023/08/07 09:15:16;;;;;;;1.73;1.00;;;25.00;99.90;;;;;;5069911;28;20047;-52
2023/08/07 09:17:44;;;;;;;2.20;0.80;;;24.80;99.90;;;;;;5069839;28;20492;-49
2023/08/07 09:20:14;;;;;;;1.63;0.80;;;24.80;99.90;;;;;;5066825;28;20043;-49
2023/08/07 09:22:41;;;;;;;2.10;1.48;;;25.00;99.90;;;;;;5069816;28;20276;-54
2023/08/07 09:25:09;;;;;;;2.90;1.20;;;25.00;99.90;;;;;;5069539;28;20033;-50
2023/08/07 09:27:38;;;;;;;2.20;1.27;;;24.70;99.90;;;;;;5069766;28;20100;-52
2023/08/07 09:30:06;;;;;;;2.72;1.77;;;24.60;99.90;;;;;;5069990;28;20517;-48
2023/08/07 09:32:32;;;;;;;1.95;1.38;;;23.90;99.90;;;;;;5069460;28;20473;-50
2023/08/07 09:34:57;;;;;;;3.17;1.65;;;23.70;99.90;;;;;;5069240;28;20052;-45
2023/08/07 09:37:23;;;;;;;1.77;1.05;;;23.90;99.90;;;;;;5068809;28;20051;-54
2023/08/07 09:39:49;;;;;;;1.83;0.80;;;24.30;99.90;;;;;;5066299;28;20039;-51
2023/08/07 09:42:17;;;;;;;1.60;0.93;;;24.40;99.90;;;;;;5067592;28;20119;-49
2023/08/07 09:44:48;;;;;;;2.78;0.80;;;24.90;99.90;;;;;;5067944;28;20553;-54
2023/08/07 09:47:16;;;;;;;1.67;0.77;;;25.00;99.90;;;;;;5067479;28;20105;-51
2023/08/07 09:49:43;;;;;;;2.13;0.88;;;25.00;99.40;;;;;;5067530;28;20029;-52
2023/08/07 09:52:10;;;;;;;1.05;0.60;;;24.60;99.90;;;;;;5067611;28;20040;-53
2023/08/07 09:54:37;;;;;;;1.50;0.88;;;24.30;99.90;;;;;;5069608;28;20047;-46
2023/08/07 09:57:04;;;;;;;1.10;0.70;;;24.30;99.90;;;;;;5069637;28;20500;-56
2023/08/07 09:59:29;;;;;;;0.82;0.70;;;24.50;99.80;;;;;;5067118;28;20066;-51
2023/08/07 10:01:55;;;;;;;1.13;0.70;;;24.20;99.90;;;;;;5069425;28;20491;-55
2023/08/07 10:04:22;;;;;;;0.73;0.40;;;24.10;99.20;;;;;;5068525;28;20647;-52
2023/08/07 10:06:48;;;;;;;1.13;0.70;;;24.60;99.90;;;;;;5068553;28;20021;-49
2023/08/07 10:09:14;;;;;;;1.75;0.68;;;25.10;99.90;;;;;;5064480;28;20319;-46
2023/08/07 10:11:41;;;;;;;1.23;0.60;;;25.30;98.30;;;;;;5057587;28;20516;-48
2023/08/07 10:14:06;;;;;;;1.17;0.60;;;25.20;98.50;;;;;;5057740;28;20033;-48
2023/08/07 10:16:32;;;;;;;3.40;0.60;;;24.70;99.90;;;;;;5084835;28;20048;-51
2023/08/07 10:18:58;;;;;;;0.73;0.63;;;25.20;99.00;;;;;;5056311;28;20478;-47
2023/08/07 10:21:24;;;;;;;1.08;0.68;;;25.60;99.90;;;;;;5057670;28;20023;-52
2023/08/07 10:23:54;;;;;;;0.95;0.60;;;26.20;99.90;;;;;;5070986;28;20462;-55
2023/08/07 10:26:20;;;;;;;2.25;0.40;;;26.60;97.80;;;;;;5073109;28;20429;-52
2023/08/07 10:28:47;;;;;;;0.75;0.63;;;26.70;97.40;;;;;;5072702;28;21243;-51
2023/08/07 10:31:14;;;;;;;1.55;0.68;;;26.70;98.20;;;;;;5072620;28;20427;-52
2023/08/07 10:33:41;;;;;;;1.30;0.50;;;26.60;96.80;;;;;;5072583;28;20451;-54
2023/08/07 10:36:11;;;;;;;1.38;0.65;;;26.90;96.60;;;;;;5072531;28;20049;-50
2023/08/07 10:38:37;;;;;;;2.30;0.75;;;26.80;97.30;;;;;;5072526;28;20097;-51
2023/08/07 10:41:06;;;;;;;1.75;0.55;;;26.50;95.60;;;;;;5072916;28;20066;-50
2023/08/07 10:43:43;;;;;;;4.43;2.15;;;25.90;96.90;;;;;;5072971;28;20021;-46
2023/08/07 10:46:21;;;;;;;4.70;1.92;;;25.20;96.90;;;;;;5070055;28;20033;-57
2023/08/07 10:48:53;;;;;;;1.92;0.75;;;24.60;98.10;;;;;;5070634;28;20485;-53
2023/08/07 10:51:19;;;;;;;2.22;0.98;;;24.60;98.90;;;;;;5072816;28;20091;-51
2023/08/07 10:53:51;;;;;;;1.65;0.65;;;24.90;98.50;;;;;;5072708;28;20024;-50
2023/08/07 10:56:28;;;;;;;1.63;0.70;;;25.30;99.90;;;;;;5072424;28;20099;-43
2023/08/07 10:58:54;;;;;;;2.28;0.68;;;25.40;98.10;;;;;;5071896;28;20047;-54
2023/08/07 11:01:26;;;;;;;1.30;0.50;;;24.70;97.60;;;;;;5070212;28;20396;-51
2023/08/07 11:04:00;;;;;;;3.30;0.63;;;24.60;99.00;;;;;;5072023;28;20052;-54
2023/08/07 11:06:33;;;;;;;1.95;0.60;;;24.70;97.10;;;;;;5071302;28;20020;-51
2023/08/07 11:09:00;;;;;;;0.85;0.60;;;25.00;97.20;;;;;;5072284;28;20028;-53
2023/08/07 11:11:29;;;;;;;0.98;0.40;;;25.60;97.10;;;;;;5070583;28;20020;-52
2023/08/07 11:13:55;;;;;;;1.13;0.60;;;25.50;95.00;;;;;;5071884;28;20032;-55
2023/08/07 11:16:21;;;;;;;0.98;0.68;;;24.70;96.10;;;;;;5072218;28;20397;-52
2023/08/07 11:18:48;;;;;;;1.05;0.60;;;24.30;97.50;;;;;;5063864;28;20039;-49
2023/08/07 11:21:14;;;;;;;0.68;0.52;;;24.20;97.50;;;;;;5069759;28;20518;-53
2023/08/07 11:23:40;;;;;;;0.82;0.60;;;24.60;98.30;;;;;;5068509;28;20136;-50
2023/08/07 11:26:07;;;;;;;0.55;0.50;;;25.10;97.60;;;;;;5071972;28;20025;-53
2023/08/07 11:28:33;;;;;;;1.23;0.68;;;24.90;96.80;;;;;;5070776;28;20025;-49
2023/08/07 11:30:59;;;;;;;1.42;0.65;;;24.80;98.50;;;;;;5069266;28;20031;-51
2023/08/07 11:33:27;;;;;;;1.02;0.63;;;25.00;96.00;;;;;;5071415;28;20370;-55
2023/08/07 11:35:53;;;;;;;2.90;0.70;;;25.30;96.90;;;;;;5067538;28;20044;-56
2023/08/07 11:38:44;;;;;;;1.60;0.68;;;25.30;96.30;;;;;;5058242;28;20406;-53
2023/08/07 11:41:15;;;;;;;3.60;0.70;;;24.70;96.70;;;;;;5058060;28;20021;-51
2023/08/07 11:43:41;;;;;;;1.02;0.47;;;24.40;96.20;;;;;;5063009;28;20017;-50
2023/08/07 11:46:09;;;;;;;1.30;0.52;;;23.60;95.50;;;;;;5066859;28;20035;-52
2023/08/07 11:48:37;;;;;;;0.95;0.75;;;23.50;98.40;;;;;;5064993;28;20388;-51
2023/08/07 11:51:04;;;;;;;1.88;0.50;;;23.80;98.40;;;;;;5070193;28;20099;-53
2023/08/07 11:53:32;;;;;;;1.38;0.60;;;24.00;96.50;;;;;;5070093;28;20494;-54
2023/08/07 11:56:00;;;;;;;1.08;0.55;;;23.90;96.60;;;;;;5062349;28;20029;-48
2023/08/07 11:58:27;;;;;;;0.97;0.60;;;23.30;95.50;;;;;;5061996;28;20044;-52
2023/08/07 12:00:54;;;;;;;0.90;0.60;;;23.20;96.30;;;;;;5082130;28;20039;-51
2023/08/07 12:03:31;;;;;;;1.10;0.52;;;23.50;98.00;;;;;;5071140;28;20028;-47
2023/08/07 12:05:58;;;;;;;0.50;0.40;;;24.30;96.30;;;;;;5074285;28;20052;-52
2023/08/07 12:08:31;;;;;;;1.15;0.50;;;24.50;95.40;;;;;;5068522;28;20079;-51
2023/08/07 12:10:56;;;;;;;2.58;0.70;;;24.30;95.10;;;;;;5061010;28;20060;-54
2023/08/07 12:13:28;;;;;;;1.75;0.55;;;24.20;95.40;;;;;;5070514;28;20070;-54
2023/08/07 12:15:55;;;;;;;7.65;0.70;;;23.90;95.50;;;;;;5070988;28;20525;-48
2023/08/07 12:18:23;;;;;;;0.93;0.50;;;23.60;96.00;;;;;;5071044;28;20024;-51
2023/08/07 12:20:51;;;;;;;1.48;0.98;;;23.50;95.90;;;;;;5062618;28;20089;-53
2023/08/07 12:23:20;;;;;;;1.42;0.63;;;23.40;95.70;;;;;;5062068;28;20032;-49
2023/08/07 12:25:45;;;;;;;0.95;0.45;;;23.20;96.70;;;;;;5051802;28;20392;-49
2023/08/07 12:28:11;;;;;;;2.58;0.70;;;23.10;97.50;;;;;;5053660;28;20116;-47
2023/08/07 12:30:38;;;;;;;0.50;0.50;;;23.00;97.40;;;;;;5056922;28;20089;-54
2023/08/07 12:33:04;;;;;;;3.38;0.43;;;22.80;99.00;;;;;;5070901;28;20135;-47
2023/08/07 12:35:30;;;;;;;2.15;0.60;;;22.40;97.20;;;;;;5071372;28;20040;-46
2023/08/07 12:37:56;;;;;;;0.85;0.57;;;22.40;99.70;;;;;;5081905;28;20064;-54
2023/08/07 12:40:23;;;;;;;0.90;0.60;;;22.10;97.70;;;;;;5084460;28;20032;-47
2023/08/07 12:42:49;;;;;;;1.52;0.80;;;22.10;99.10;;;;;;5078546;28;20037;-53
2023/08/07 12:45:16;;;;;;;2.08;0.70;;;22.10;99.90;;;;;;5072679;28;20032;-51